createdAt,value
2023-05-29T00:00:31.705Z,100961.91
2023-05-29T00:01:35.430Z,100963.22
2023-05-29T00:02:38.986Z,100960.19
2023-05-29T00:03:41.625Z,100950.22
2023-05-29T00:04:45.175Z,100949.88
2023-05-29T00:05:50.350Z,100947.81
2023-05-29T00:06:53.569Z,100954.41
2023-05-29T00:07:56.770Z,100954.09
2023-05-29T00:09:00.146Z,100951.19
2023-05-29T00:10:02.554Z,100954.69
2023-05-29T00:11:06.113Z,100954.66
2023-05-29T00:12:09.776Z,100950.66
2023-05-29T00:13:13.718Z,100947.19
2023-05-29T00:14:16.312Z,100956.97
2023-05-29T00:15:19.644Z,100954.31
2023-05-29T00:16:22.186Z,100956.91
2023-05-29T00:17:26.102Z,100954.28
2023-05-29T00:18:28.463Z,100958.78
2023-05-29T00:19:31.714Z,100944.72
2023-05-29T00:20:35.466Z,100959.56
2023-05-29T00:21:40.573Z,100952.47
2023-05-29T00:22:43.372Z,100950.69
2023-05-29T00:23:47.098Z,100945.75
2023-05-29T00:24:49.604Z,100942.28
2023-05-29T00:25:53.399Z,100950.13
2023-05-29T00:26:56.203Z,100949.53
2023-05-29T00:27:59.461Z,100943.75
2023-05-29T00:29:01.692Z,100940.63
2023-05-29T00:30:07.002Z,100936.78
2023-05-29T00:31:09.700Z,100941.09
2023-05-29T00:32:13.484Z,100943.78
2023-05-29T00:33:15.916Z,100950.13
2023-05-29T00:34:19.433Z,100942.25
2023-05-29T00:35:22.166Z,100944.53
2023-05-29T00:36:26.460Z,100941.59
2023-05-29T00:37:30.440Z,100939.78
2023-05-29T00:38:33.768Z,100950.97
2023-05-29T00:39:36.148Z,100946.13
2023-05-29T00:40:39.658Z,100946.03
2023-05-29T00:41:42.205Z,100937.44
2023-05-29T00:42:45.767Z,100933.44
2023-05-29T00:43:48.050Z,100937.75
2023-05-29T00:44:51.331Z,100940.75
2023-05-29T00:45:54.179Z,100936.66
2023-05-29T00:46:58.920Z,100938.00
2023-05-29T00:48:01.309Z,100940.00
2023-05-29T00:49:07.947Z,100942.97
2023-05-29T00:50:11.980Z,100940.00
2023-05-29T00:51:17.958Z,100938.34
2023-05-29T00:52:21.442Z,100939.31
2023-05-29T00:53:26.921Z,100948.03
2023-05-29T00:54:31.336Z,100941.75
2023-05-29T00:55:34.870Z,100930.59
2023-05-29T00:56:37.720Z,100933.31
2023-05-29T00:57:41.503Z,100930.13
2023-05-29T00:58:45.335Z,100930.59
2023-05-29T00:59:49.949Z,100922.25
2023-05-29T01:00:54.188Z,100935.38
2023-05-29T01:01:59.011Z,100934.44
2023-05-29T01:03:06.014Z,100934.84
2023-05-29T01:04:09.683Z,100937.19
2023-05-29T01:05:12.750Z,100922.47
2023-05-29T01:06:16.684Z,100933.56
2023-05-29T01:07:19.054Z,100927.34
2023-05-29T01:08:22.566Z,100929.56
2023-05-29T01:09:26.439Z,100928.28
2023-05-29T01:10:30.201Z,100926.81
2023-05-29T01:11:38.411Z,100932.44
2023-05-29T01:12:48.539Z,100932.38
2023-05-29T01:13:53.422Z,100937.09
2023-05-29T01:15:13.178Z,100930.50
2023-05-29T01:16:23.772Z,100929.66
2023-05-29T01:17:33.546Z,100926.41
2023-05-29T01:18:43.873Z,100922.53
2023-05-29T01:20:15.066Z,100922.44
2023-05-29T01:21:30.225Z,100924.84
2023-05-29T01:22:42.416Z,100926.28
2023-05-29T01:24:19.657Z,100919.47
2023-05-29T01:25:35.060Z,100930.78
2023-05-29T01:26:54.604Z,100920.78
2023-05-29T01:28:02.100Z,100923.28
2023-05-29T01:29:09.274Z,100935.81
2023-05-29T01:30:12.769Z,100930.72
2023-05-29T01:31:21.091Z,100931.94
2023-05-29T01:32:24.387Z,100932.78
2023-05-29T01:33:28.873Z,100925.53
2023-05-29T01:34:31.280Z,100926.34
2023-05-29T01:35:35.132Z,100931.63
2023-05-29T01:36:37.646Z,100931.72
2023-05-29T01:37:42.024Z,100925.16
2023-05-29T01:38:44.593Z,100920.03
2023-05-29T01:39:48.056Z,100933.41
2023-05-29T01:40:51.049Z,100928.56
2023-05-29T01:41:57.207Z,100922.41
2023-05-29T01:42:59.508Z,100924.78
2023-05-29T01:44:05.201Z,100927.91
2023-05-29T01:45:08.214Z,100926.59
2023-05-29T01:46:11.823Z,100925.19
2023-05-29T01:47:14.605Z,100930.75
2023-05-29T01:48:18.429Z,100923.41
2023-05-29T01:49:22.176Z,100931.75
2023-05-29T01:50:26.998Z,100931.94
2023-05-29T01:51:29.779Z,100932.72
2023-05-29T01:52:34.335Z,100937.03
2023-05-29T01:53:36.723Z,100935.19
2023-05-29T01:54:40.129Z,100931.75
2023-05-29T01:55:42.728Z,100929.63
2023-05-29T01:56:47.725Z,100935.06
2023-05-29T01:57:53.112Z,100937.69
2023-05-29T01:58:57.559Z,100933.81
2023-05-29T01:59:59.953Z,100934.34
2023-05-29T02:01:05.133Z,100934.25
2023-05-29T02:02:08.291Z,100928.03
2023-05-29T02:03:13.965Z,100930.09
2023-05-29T02:04:16.452Z,100928.03
2023-05-29T02:05:20.070Z,100930.34
2023-05-29T02:06:22.564Z,100928.25
2023-05-29T02:07:26.084Z,100923.22
2023-05-29T02:08:28.950Z,100921.78
2023-05-29T02:09:32.498Z,100919.50
2023-05-29T02:10:35.021Z,100924.69
2023-05-29T02:11:38.923Z,100931.09
2023-05-29T02:12:41.224Z,100927.53
2023-05-29T02:13:45.924Z,100926.81
2023-05-29T02:14:48.224Z,100924.06
2023-05-29T02:15:51.624Z,100931.06
2023-05-29T02:16:53.985Z,100921.09
2023-05-29T02:17:58.709Z,100919.47
2023-05-29T02:19:02.550Z,100922.94
2023-05-29T02:20:08.559Z,100915.75
2023-05-29T02:21:13.548Z,100923.22
2023-05-29T02:22:16.803Z,100920.91
2023-05-29T02:23:20.492Z,100923.38
2023-05-29T02:24:24.870Z,100917.13
2023-05-29T02:25:27.217Z,100926.59
2023-05-29T02:26:30.784Z,100917.97
2023-05-29T02:27:33.315Z,100925.94
2023-05-29T02:28:36.759Z,100910.38
2023-05-29T02:29:40.442Z,100916.38
2023-05-29T02:30:43.752Z,100919.84
2023-05-29T02:31:45.971Z,100922.25
2023-05-29T02:32:49.254Z,100915.81
2023-05-29T02:33:51.533Z,100913.50
2023-05-29T02:34:54.918Z,100911.91
2023-05-29T02:35:57.184Z,100915.84
2023-05-29T02:37:01.093Z,100917.09
2023-05-29T02:38:03.361Z,100921.56
2023-05-29T02:39:07.741Z,100921.34
2023-05-29T02:40:11.186Z,100919.47
2023-05-29T02:41:14.358Z,100921.19
2023-05-29T02:42:16.564Z,100914.31
2023-05-29T02:43:19.915Z,100913.25
2023-05-29T02:44:22.127Z,100918.44
2023-05-29T02:45:27.033Z,100912.53
2023-05-29T02:46:29.422Z,100914.03
2023-05-29T02:47:32.912Z,100915.31
2023-05-29T02:48:35.303Z,100907.50
2023-05-29T02:49:38.652Z,100901.88
2023-05-29T02:50:41.216Z,100908.34
2023-05-29T02:51:44.589Z,100908.44
2023-05-29T02:52:46.846Z,100906.38
2023-05-29T02:53:50.757Z,100908.03
2023-05-29T02:54:54.838Z,100916.09
2023-05-29T02:55:58.092Z,100908.53
2023-05-29T02:57:00.340Z,100909.09
2023-05-29T02:58:04.393Z,100900.88
2023-05-29T02:59:06.724Z,100904.19
2023-05-29T03:00:12.495Z,100909.91
2023-05-29T03:01:16.403Z,100909.78
2023-05-29T03:02:20.066Z,100904.66
2023-05-29T03:03:22.548Z,100908.19
2023-05-29T03:04:26.435Z,100907.94
2023-05-29T03:05:29.126Z,100903.00
2023-05-29T03:06:33.432Z,100897.16
2023-05-29T03:07:35.800Z,100895.16
2023-05-29T03:08:41.085Z,100899.34
2023-05-29T03:09:43.411Z,100899.97
2023-05-29T03:10:48.564Z,100893.91
2023-05-29T03:11:51.571Z,100899.22
2023-05-29T03:12:55.374Z,100894.75
2023-05-29T03:13:57.802Z,100888.66
2023-05-29T03:15:01.135Z,100891.88
2023-05-29T03:16:03.405Z,100888.44
2023-05-29T03:17:09.215Z,100882.34
2023-05-29T03:18:11.667Z,100881.84
2023-05-29T03:19:15.161Z,100875.81
2023-05-29T03:20:17.632Z,100886.25
2023-05-29T03:21:21.196Z,100881.66
2023-05-29T03:22:23.483Z,100883.28
2023-05-29T03:23:27.546Z,100886.75
2023-05-29T03:24:30.009Z,100877.22
2023-05-29T03:25:33.604Z,100877.94
2023-05-29T03:26:38.178Z,100879.63
2023-05-29T03:27:41.952Z,100878.34
2023-05-29T03:28:44.225Z,100881.00
2023-05-29T03:29:47.599Z,100885.44
2023-05-29T03:30:49.861Z,100882.31
2023-05-29T03:31:53.557Z,100887.63
2023-05-29T03:32:57.513Z,100885.41
2023-05-29T03:34:02.255Z,100879.16
2023-05-29T03:35:05.155Z,100882.41
2023-05-29T03:36:09.564Z,100877.78
2023-05-29T03:37:12.304Z,100886.50
2023-05-29T03:38:15.564Z,100878.94
2023-05-29T03:39:17.818Z,100881.78
2023-05-29T03:40:21.708Z,100883.19
2023-05-29T03:41:24.273Z,100887.31
2023-05-29T03:42:27.631Z,100882.72
2023-05-29T03:43:29.892Z,100884.34
2023-05-29T03:44:33.177Z,100883.22
2023-05-29T03:45:35.327Z,100881.38
2023-05-29T03:46:39.018Z,100881.72
2023-05-29T03:47:41.517Z,100880.22
2023-05-29T03:48:46.624Z,100871.53
2023-05-29T03:49:49.008Z,100875.63
2023-05-29T03:50:52.322Z,100877.31
2023-05-29T03:51:54.543Z,100879.63
2023-05-29T03:52:57.960Z,100879.50
2023-05-29T03:54:00.267Z,100871.41
2023-05-29T03:55:04.363Z,100870.53
2023-05-29T03:56:07.126Z,100873.00
2023-05-29T03:57:11.159Z,100870.56
2023-05-29T03:58:13.603Z,100870.97
2023-05-29T03:59:16.977Z,100871.19
2023-05-29T04:00:19.475Z,100874.28
2023-05-29T04:01:22.806Z,100870.50
2023-05-29T04:02:25.181Z,100871.81
2023-05-29T04:03:30.496Z,100874.38
2023-05-29T04:04:34.432Z,100876.19
2023-05-29T04:05:37.902Z,100875.38
2023-05-29T04:06:40.144Z,100873.13
2023-05-29T04:07:44.198Z,100878.91
2023-05-29T04:08:46.663Z,100879.66
2023-05-29T04:09:49.967Z,100876.31
2023-05-29T04:10:55.055Z,100880.81
2023-05-29T04:11:58.892Z,100876.88
2023-05-29T04:13:01.443Z,100875.56
2023-05-29T04:14:05.315Z,100885.50
2023-05-29T04:15:09.197Z,100873.53
2023-05-29T04:16:12.602Z,100881.88
2023-05-29T04:17:15.890Z,100882.75
2023-05-29T04:18:18.206Z,100887.41
2023-05-29T04:19:22.280Z,100882.09
2023-05-29T04:20:25.974Z,100884.22
2023-05-29T04:21:29.538Z,100883.38
2023-05-29T04:22:31.951Z,100882.78
2023-05-29T04:23:35.290Z,100889.75
2023-05-29T04:24:37.868Z,100891.75
2023-05-29T04:25:41.424Z,100885.41
2023-05-29T04:26:44.493Z,100891.56
2023-05-29T04:27:49.806Z,100890.78
2023-05-29T04:28:58.165Z,100884.72
2023-05-29T04:30:01.452Z,100895.41
2023-05-29T04:31:03.761Z,100887.19
2023-05-29T04:32:07.598Z,100894.78
2023-05-29T04:33:11.086Z,100894.00
2023-05-29T04:34:18.327Z,100897.94
2023-05-29T04:35:23.001Z,100885.78
2023-05-29T04:36:26.917Z,100886.97
2023-05-29T04:37:31.008Z,100878.72
2023-05-29T04:38:33.219Z,100882.91
2023-05-29T04:39:36.618Z,100876.69
2023-05-29T04:40:38.952Z,100879.91
2023-05-29T04:41:42.983Z,100881.16
2023-05-29T04:42:46.792Z,100882.41
2023-05-29T04:43:50.963Z,100888.69
2023-05-29T04:44:53.681Z,100893.63
2023-05-29T04:45:57.118Z,100890.25
2023-05-29T04:47:04.250Z,100888.84
2023-05-29T04:48:06.767Z,100890.22
2023-05-29T04:49:10.148Z,100891.59
2023-05-29T04:50:13.099Z,100897.00
2023-05-29T04:51:17.935Z,100900.31
2023-05-29T04:52:22.360Z,100897.72
2023-05-29T04:53:25.690Z,100898.22
2023-05-29T04:54:29.013Z,100898.59
2023-05-29T04:55:31.339Z,100900.31
2023-05-29T04:56:35.062Z,100905.72
2023-05-29T04:57:37.438Z,100898.22
2023-05-29T04:58:40.855Z,100903.03
2023-05-29T04:59:43.159Z,100910.19
2023-05-29T05:00:46.539Z,100906.91
2023-05-29T05:01:50.246Z,100913.22
2023-05-29T05:02:53.057Z,100911.84
2023-05-29T05:03:57.303Z,100910.41
2023-05-29T05:05:00.117Z,100904.97
2023-05-29T05:06:03.653Z,100910.97
2023-05-29T05:07:07.642Z,100914.38
2023-05-29T05:08:13.579Z,100917.75
2023-05-29T05:09:15.988Z,100921.13
2023-05-29T05:10:19.755Z,100919.38
2023-05-29T05:11:24.031Z,100927.84
2023-05-29T05:12:27.942Z,100922.25
2023-05-29T05:13:32.001Z,100925.00
2023-05-29T05:14:35.446Z,100930.28
2023-05-29T05:15:37.940Z,100930.47
2023-05-29T05:16:41.798Z,100926.88
2023-05-29T05:17:44.251Z,100927.06
2023-05-29T05:18:47.633Z,100936.31
2023-05-29T05:19:50.552Z,100935.84
2023-05-29T05:20:54.230Z,100932.28
2023-05-29T05:21:56.924Z,100936.31
2023-05-29T05:23:01.156Z,100942.25
2023-05-29T05:24:05.456Z,100941.47
2023-05-29T05:25:09.454Z,100942.66
2023-05-29T05:26:12.131Z,100937.06
2023-05-29T05:27:15.725Z,100939.69
2023-05-29T05:28:18.068Z,100939.00
2023-05-29T05:29:22.076Z,100948.03
2023-05-29T05:30:24.311Z,100946.03
2023-05-29T05:31:27.698Z,100943.03
2023-05-29T05:32:29.976Z,100936.84
2023-05-29T05:33:33.262Z,100947.28
2023-05-29T05:34:36.486Z,100945.22
2023-05-29T05:35:39.806Z,100945.72
2023-05-29T05:36:42.263Z,100950.03
2023-05-29T05:37:45.529Z,100951.13
2023-05-29T05:38:47.839Z,100948.94
2023-05-29T05:39:54.533Z,100953.75
2023-05-29T05:40:57.109Z,100949.41
2023-05-29T05:42:01.075Z,100957.25
2023-05-29T05:43:03.648Z,100952.53
2023-05-29T05:44:07.146Z,100953.78
2023-05-29T05:45:11.042Z,100961.09
2023-05-29T05:46:14.807Z,100960.25
2023-05-29T05:47:17.655Z,100970.31
2023-05-29T05:48:21.190Z,100963.91
2023-05-29T05:49:23.473Z,100976.34
2023-05-29T05:50:27.333Z,100977.66
2023-05-29T05:51:29.681Z,100975.19
2023-05-29T05:52:34.711Z,100977.44
2023-05-29T05:53:38.456Z,100979.44
2023-05-29T05:54:42.070Z,100978.78
2023-05-29T05:55:46.201Z,100984.97
2023-05-29T05:56:50.167Z,100988.09
2023-05-29T05:57:53.106Z,100981.94
2023-05-29T05:58:57.051Z,100983.53
2023-05-29T06:00:01.651Z,100986.81
2023-05-29T06:01:09.696Z,100990.34
2023-05-29T06:02:12.893Z,100992.22
2023-05-29T06:03:16.963Z,100988.28
2023-05-29T06:04:20.907Z,100993.97
2023-05-29T06:05:24.700Z,100989.19
2023-05-29T06:06:27.709Z,100986.91
2023-05-29T06:07:31.552Z,100991.41
2023-05-29T06:08:34.396Z,100991.16
2023-05-29T06:09:38.426Z,100992.78
2023-05-29T06:10:41.235Z,101001.34
2023-05-29T06:11:46.627Z,101001.16
2023-05-29T06:12:49.405Z,100999.94
2023-05-29T06:13:54.417Z,101000.31
2023-05-29T06:14:57.524Z,100994.88
2023-05-29T06:16:01.933Z,101003.75
2023-05-29T06:17:08.771Z,100999.25
2023-05-29T06:18:12.064Z,101000.16
2023-05-29T06:19:16.534Z,100998.53
2023-05-29T06:20:19.136Z,101000.03
2023-05-29T06:21:23.818Z,100998.72
2023-05-29T06:22:35.293Z,100998.16
2023-05-29T06:23:37.928Z,101009.34
2023-05-29T06:24:41.553Z,101008.47
2023-05-29T06:25:44.510Z,101002.47
2023-05-29T06:26:51.553Z,101000.53
2023-05-29T06:27:54.129Z,101007.09
2023-05-29T06:28:57.536Z,101000.81
2023-05-29T06:29:59.851Z,101004.03
2023-05-29T06:31:03.166Z,101008.63
2023-05-29T06:32:06.134Z,100996.63
2023-05-29T06:33:09.885Z,101006.59
2023-05-29T06:34:12.341Z,100998.22
2023-05-29T06:35:16.486Z,100996.38
2023-05-29T06:36:20.040Z,100999.72
2023-05-29T06:37:23.735Z,100996.50
2023-05-29T06:38:26.543Z,101002.53
2023-05-29T06:39:30.391Z,101004.66
2023-05-29T06:40:32.878Z,101005.47
2023-05-29T06:41:37.012Z,101002.59
2023-05-29T06:42:41.384Z,101005.47
2023-05-29T06:43:45.319Z,101010.31
2023-05-29T06:44:48.059Z,101014.44
2023-05-29T06:45:51.969Z,101013.22
2023-05-29T06:46:54.814Z,101010.53
2023-05-29T06:47:58.768Z,101010.13
2023-05-29T06:49:03.465Z,101011.03
2023-05-29T06:50:09.833Z,101010.09
2023-05-29T06:51:13.499Z,101007.47
2023-05-29T06:52:17.104Z,101010.13
2023-05-29T06:53:19.771Z,101005.72
2023-05-29T06:54:23.483Z,101006.53
2023-05-29T06:55:26.437Z,101006.84
2023-05-29T06:56:31.766Z,101010.00
2023-05-29T06:57:34.485Z,101005.59
2023-05-29T06:58:39.494Z,101011.91
2023-05-29T06:59:42.125Z,101016.34
2023-05-29T07:00:46.238Z,101011.41
2023-05-29T07:01:49.686Z,101025.97
2023-05-29T07:02:53.857Z,101015.78
2023-05-29T07:03:56.682Z,101020.09
2023-05-29T07:05:00.200Z,101020.81
2023-05-29T07:06:02.627Z,101016.34
2023-05-29T07:07:06.216Z,101022.25
2023-05-29T07:08:08.673Z,101020.50
2023-05-29T07:09:12.156Z,101020.22
2023-05-29T07:10:14.467Z,101025.81
2023-05-29T07:11:17.892Z,101030.88
2023-05-29T07:12:21.334Z,101030.50
2023-05-29T07:13:26.353Z,101031.91
2023-05-29T07:14:31.812Z,101030.63
2023-05-29T07:15:35.322Z,101039.00
2023-05-29T07:16:38.961Z,101044.63
2023-05-29T07:17:42.020Z,101040.06
2023-05-29T07:18:45.714Z,101044.03
2023-05-29T07:19:50.526Z,101039.38
2023-05-29T07:20:55.090Z,101044.94
2023-05-29T07:21:59.787Z,101042.28
2023-05-29T07:23:03.459Z,101041.06
2023-05-29T07:24:07.641Z,101049.59
2023-05-29T07:25:10.978Z,101049.75
2023-05-29T07:26:14.891Z,101045.72
2023-05-29T07:27:18.944Z,101046.41
2023-05-29T07:28:22.803Z,101051.31
2023-05-29T07:29:27.281Z,101052.69
2023-05-29T07:30:31.455Z,101053.00
2023-05-29T07:31:34.788Z,101054.19
2023-05-29T07:32:37.585Z,101058.72
2023-05-29T07:33:43.127Z,101057.94
2023-05-29T07:34:48.175Z,101051.41
2023-05-29T07:35:51.933Z,101056.06
2023-05-29T07:37:02.611Z,101052.56
2023-05-29T07:38:05.989Z,101053.25
2023-05-29T07:39:08.868Z,101058.50
2023-05-29T07:40:12.927Z,101058.84
2023-05-29T07:41:17.132Z,101060.41
2023-05-29T07:42:20.674Z,101067.38
2023-05-29T07:43:22.989Z,101060.06
2023-05-29T07:44:26.636Z,101056.34
2023-05-29T07:45:30.758Z,101061.31
2023-05-29T07:46:34.586Z,101066.25
2023-05-29T07:47:38.856Z,101064.50
2023-05-29T07:48:42.481Z,101064.91
2023-05-29T07:49:45.996Z,101059.47
2023-05-29T07:50:49.904Z,101059.88
2023-05-29T07:51:52.532Z,101064.38
2023-05-29T07:52:57.245Z,101065.69
2023-05-29T07:53:59.630Z,101064.41
2023-05-29T07:55:03.409Z,101068.06
2023-05-29T07:56:06.411Z,101073.31
2023-05-29T07:57:11.611Z,101070.06
2023-05-29T07:58:14.193Z,101082.25
2023-05-29T07:59:18.197Z,101079.25
2023-05-29T08:00:21.179Z,101073.31
2023-05-29T08:01:27.307Z,101075.38
2023-05-29T08:02:30.086Z,101078.03
2023-05-29T08:03:33.763Z,101082.31
2023-05-29T08:04:37.051Z,101077.47
2023-05-29T08:05:40.488Z,101077.47
2023-05-29T08:06:43.532Z,101077.63
2023-05-29T08:07:47.968Z,101093.84
2023-05-29T08:08:50.254Z,101087.53
2023-05-29T08:09:53.536Z,101091.91
2023-05-29T08:10:57.110Z,101090.66
2023-05-29T08:12:01.602Z,101094.94
2023-05-29T08:13:05.059Z,101096.09
2023-05-29T08:14:07.314Z,101097.31
2023-05-29T08:15:11.199Z,101096.94
2023-05-29T08:16:15.597Z,101099.22
2023-05-29T08:17:20.544Z,101096.31
2023-05-29T08:18:23.230Z,101094.56
2023-05-29T08:19:26.831Z,101091.41
2023-05-29T08:20:29.289Z,101084.50
2023-05-29T08:21:33.884Z,101089.16
2023-05-29T08:22:37.670Z,101091.34
2023-05-29T08:23:40.231Z,101083.66
2023-05-29T08:24:43.981Z,101079.84
2023-05-29T08:25:46.559Z,101082.25
2023-05-29T08:26:49.938Z,101077.19
2023-05-29T08:27:52.245Z,101076.72
2023-05-29T08:28:55.965Z,101086.50
2023-05-29T08:29:58.308Z,101077.88
2023-05-29T08:31:01.688Z,101077.97
2023-05-29T08:32:05.582Z,101078.53
2023-05-29T08:33:09.600Z,101086.94
2023-05-29T08:34:13.349Z,101087.91
2023-05-29T08:35:16.172Z,101088.41
2023-05-29T08:36:22.091Z,101079.75
2023-05-29T08:37:25.234Z,101088.09
2023-05-29T08:38:28.646Z,101087.00
2023-05-29T08:39:32.064Z,101084.41
2023-05-29T08:40:35.000Z,101085.16
2023-05-29T08:41:50.333Z,101090.88
2023-05-29T08:42:58.399Z,101091.34
2023-05-29T08:44:05.830Z,101089.88
2023-05-29T08:45:13.669Z,101094.56
2023-05-29T08:46:20.171Z,101086.22
2023-05-29T08:47:25.163Z,101094.78
2023-05-29T08:48:31.721Z,101087.47
2023-05-29T08:49:42.941Z,101087.34
2023-05-29T08:50:47.481Z,101085.13
2023-05-29T08:51:55.889Z,101089.53
2023-05-29T08:53:00.108Z,101083.06
2023-05-29T08:54:03.800Z,101091.25
2023-05-29T08:55:09.075Z,101084.03
2023-05-29T08:56:20.037Z,101100.22
2023-05-29T08:57:31.421Z,101095.09
2023-05-29T08:58:36.795Z,101097.66
2023-05-29T08:59:43.557Z,101089.38
2023-05-29T09:00:49.504Z,101093.19
2023-05-29T09:01:52.014Z,101085.16
2023-05-29T09:02:56.439Z,101090.81
2023-05-29T09:04:02.472Z,101090.06
2023-05-29T09:05:07.807Z,101095.00
2023-05-29T09:06:10.297Z,101098.41
2023-05-29T09:07:14.002Z,101093.63
2023-05-29T09:08:18.411Z,101098.31
2023-05-29T09:09:21.777Z,101085.13
2023-05-29T09:10:26.757Z,101096.66
2023-05-29T09:11:30.242Z,101104.03
2023-05-29T09:12:33.842Z,101105.81
2023-05-29T09:13:36.990Z,101102.47
2023-05-29T09:14:43.888Z,101101.47
2023-05-29T09:15:49.582Z,101106.16
2023-05-29T09:16:52.019Z,101105.56
2023-05-29T09:17:58.397Z,101105.59
2023-05-29T09:19:11.035Z,101098.66
2023-05-29T09:20:19.277Z,101100.22
2023-05-29T09:21:30.822Z,101097.53
2023-05-29T09:22:34.529Z,101105.38
2023-05-29T09:23:37.298Z,101104.03
2023-05-29T09:24:40.948Z,101101.44
2023-05-29T09:25:45.172Z,101103.13
2023-05-29T09:26:51.245Z,101102.25
2023-05-29T09:27:57.015Z,101101.59
2023-05-29T09:28:59.799Z,101102.00
2023-05-29T09:30:03.094Z,101096.03
2023-05-29T09:31:15.411Z,101098.75
2023-05-29T09:32:20.107Z,101102.97
2023-05-29T09:33:22.576Z,101099.47
2023-05-29T09:34:28.754Z,101101.19
2023-05-29T09:35:35.360Z,101098.94
2023-05-29T09:36:40.752Z,101098.56
2023-05-29T09:37:43.394Z,101101.53
2023-05-29T09:38:53.241Z,101095.88
2023-05-29T09:39:57.119Z,101110.38
2023-05-29T09:41:05.989Z,101107.31
2023-05-29T09:42:09.694Z,101106.81
2023-05-29T09:43:15.211Z,101105.25
2023-05-29T09:44:17.697Z,101102.41
2023-05-29T09:45:21.343Z,101108.28
2023-05-29T09:46:23.977Z,101107.19
2023-05-29T09:47:27.404Z,101105.28
2023-05-29T09:48:30.798Z,101113.56
2023-05-29T09:49:35.954Z,101101.84
2023-05-29T09:50:38.321Z,101109.44
2023-05-29T09:51:43.839Z,101100.03
2023-05-29T09:52:46.247Z,101106.91
2023-05-29T09:53:50.138Z,101108.94
2023-05-29T09:54:53.869Z,101100.09
2023-05-29T09:56:01.008Z,101097.59
2023-05-29T09:57:06.302Z,101100.97
2023-05-29T09:58:10.526Z,101099.63
2023-05-29T09:59:14.148Z,101105.00
2023-05-29T10:00:19.913Z,101100.03
2023-05-29T10:01:23.846Z,101101.91
2023-05-29T10:02:27.493Z,101103.53
2023-05-29T10:03:36.171Z,101113.03
2023-05-29T10:04:41.380Z,101106.72
2023-05-29T10:05:45.005Z,101113.31
2023-05-29T10:06:51.336Z,101111.28
2023-05-29T10:07:56.861Z,101107.16
2023-05-29T10:09:01.841Z,101108.19
2023-05-29T10:10:08.796Z,101101.69
2023-05-29T10:11:16.606Z,101091.81
2023-05-29T10:12:22.748Z,101096.22
2023-05-29T10:13:28.060Z,101099.81
2023-05-29T10:14:34.750Z,101099.28
2023-05-29T10:15:38.818Z,101093.44
2023-05-29T10:16:44.550Z,101093.41
2023-05-29T10:17:53.826Z,101092.97
2023-05-29T10:18:57.297Z,101094.25
2023-05-29T10:20:04.979Z,101093.91
2023-05-29T10:21:13.194Z,101095.66
2023-05-29T10:22:21.975Z,101091.22
2023-05-29T10:23:27.227Z,101090.66
2023-05-29T10:24:30.209Z,101098.50
2023-05-29T10:25:36.293Z,101106.28
2023-05-29T10:26:41.691Z,101103.53
2023-05-29T10:27:46.536Z,101100.97
2023-05-29T10:28:57.814Z,101099.88
2023-05-29T10:30:10.088Z,101108.78
2023-05-29T10:31:20.904Z,101100.81
2023-05-29T10:32:31.990Z,101106.72
2023-05-29T10:33:59.433Z,101097.00
2023-05-29T10:35:10.792Z,101104.34
2023-05-29T10:36:16.733Z,101099.97
2023-05-29T10:37:29.799Z,101104.13
2023-05-29T10:38:32.735Z,101096.03
2023-05-29T10:39:36.306Z,101103.56
2023-05-29T10:40:39.889Z,101100.25
2023-05-29T10:41:43.881Z,101105.78
2023-05-29T10:42:50.626Z,101096.59
2023-05-29T10:43:56.668Z,101106.41
2023-05-29T10:45:00.177Z,101100.03
2023-05-29T10:46:04.169Z,101096.72
2023-05-29T10:47:07.318Z,101113.47
2023-05-29T10:48:43.156Z,101112.69
2023-05-29T10:49:53.239Z,101104.78
2023-05-29T10:50:57.817Z,101109.41
2023-05-29T10:52:01.999Z,101101.97
2023-05-29T10:53:04.727Z,101113.16
2023-05-29T10:54:09.543Z,101100.03
2023-05-29T10:55:13.728Z,101106.44
2023-05-29T10:56:21.696Z,101106.66
2023-05-29T10:57:27.772Z,101103.31
2023-05-29T10:58:31.811Z,101093.66
2023-05-29T10:59:39.368Z,101094.47
2023-05-29T11:00:43.041Z,101096.03
2023-05-29T11:01:46.551Z,101100.75
2023-05-29T11:02:49.073Z,101094.72
2023-05-29T11:03:53.663Z,101099.13
2023-05-29T11:05:23.470Z,101101.78
2023-05-29T11:06:27.660Z,101101.19
2023-05-29T11:07:38.108Z,101103.81
2023-05-29T11:08:46.688Z,101103.19
2023-05-29T11:09:53.820Z,101102.03
2023-05-29T11:11:01.326Z,101099.75
2023-05-29T11:12:26.945Z,101109.22
2023-05-29T11:13:37.157Z,101104.03
2023-05-29T11:14:47.443Z,101093.66
2023-05-29T11:15:51.196Z,101099.44
2023-05-29T11:16:53.577Z,101094.44
2023-05-29T11:17:57.177Z,101098.06
2023-05-29T11:19:01.320Z,101095.41
2023-05-29T11:20:08.183Z,101097.28
2023-05-29T11:21:26.004Z,101107.63
2023-05-29T11:22:48.778Z,101102.00
2023-05-29T11:23:53.873Z,101104.06
2023-05-29T11:24:58.608Z,101110.31
2023-05-29T11:26:02.532Z,101109.06
2023-05-29T11:27:09.223Z,101105.59
2023-05-29T11:28:13.707Z,101099.31
2023-05-29T11:29:17.901Z,101097.59
2023-05-29T11:30:20.654Z,101101.03
2023-05-29T11:31:25.642Z,101108.53
2023-05-29T11:32:31.591Z,101114.34
2023-05-29T11:33:42.366Z,101107.25
2023-05-29T11:34:48.570Z,101093.94
2023-05-29T11:35:56.737Z,101105.44
2023-05-29T11:37:01.685Z,101105.00
2023-05-29T11:38:05.675Z,101101.34
2023-05-29T11:39:11.258Z,101096.63
2023-05-29T11:40:14.857Z,101097.88
2023-05-29T11:41:19.784Z,101102.28
2023-05-29T11:42:23.268Z,101106.19
2023-05-29T11:43:26.496Z,101099.31
2023-05-29T11:44:30.051Z,101107.22
2023-05-29T11:45:34.811Z,101112.44
2023-05-29T11:46:38.440Z,101101.31
2023-05-29T11:47:54.420Z,101105.81
2023-05-29T11:48:57.836Z,101104.78
2023-05-29T11:50:00.188Z,101111.84
2023-05-29T11:51:07.636Z,101101.75
2023-05-29T11:53:19.865Z,101103.56
2023-05-29T11:54:22.165Z,101105.28
2023-05-29T11:55:27.101Z,101097.06
2023-05-29T11:56:30.254Z,101096.03
2023-05-29T11:57:34.015Z,101097.97
2023-05-29T11:58:37.255Z,101100.00
2023-05-29T11:59:41.618Z,101095.84
2023-05-29T12:00:45.912Z,101096.16
2023-05-29T12:01:51.155Z,101097.66
2023-05-29T12:02:53.728Z,101095.91
2023-05-29T12:03:57.226Z,101093.59
2023-05-29T12:05:02.857Z,101101.47
2023-05-29T12:06:07.837Z,101098.97
2023-05-29T12:07:19.411Z,101099.56
2023-05-29T12:08:25.604Z,101098.63
2023-05-29T12:09:28.762Z,101107.88
2023-05-29T12:10:32.321Z,101101.16
2023-05-29T12:11:36.282Z,101100.00
2023-05-29T12:12:40.680Z,101103.34
2023-05-29T12:13:43.981Z,101100.25
2023-05-29T12:14:51.054Z,101090.69
2023-05-29T12:15:58.010Z,101090.47
2023-05-29T12:17:01.421Z,101086.09
2023-05-29T12:18:05.269Z,101086.09